Ashland, Wisconsin
Current Conditions -  °F | °C
As of 2:53 PM on Thursday 27 Nov 2014 (Local Time) from KASX Reporting Station
Clear Clear  
Wind Chill:   Ceiling: Unl
Heat Index: 10°   Visibility: 10mi
Dew Point:   Wind: 6mph
Humidity: 64%   Direction: 210°SSW
Pressure: 30.41"   Gusts: NA
Location:  46.59°N, 90.89°W
Report Text: KASX 272053Z AUTO 21005KT 10SM CLR M12/M18 A3041 RMK AO2 SLP321 T11221178 55007
Loading
Personal Weather Stations






























Interactive Weather Map New forecast layout! Learn more

10-Day Weather Forecast

Advertisements
Track Severe Weather on mobile